KDRT/DRT METAR and TAF weather

Enter ICAO airport designator
Station Type Date Time Source
KDRT METAR 2019/06/26 09:53 UTC NOAA

KDRT 260953Z AUTO 11006KT 10SM BKN025 23/20 A3001 RMK AO2 SLP144 T02280200


Station Type Date Time Source
KDRT Decoded METAR 2019/06/26 09:53 UTC NOAA

DEL RIO INTERNATIONAL AIRPORT, TX, United States (KDRT) 29-22N 100-55W 313M
Jun 26, 2019 - 05:53 AM EDT / 2019.06.26 0953 UTC
Wind: from the ESE (110 degrees) at 7 MPH (6 KT):0
Visibility: 10 mile(s):0
Sky conditions: mostly cloudy
Temperature: 73.0 F (22.8 C)
Dew Point: 68.0 F (20.0 C)
Relative Humidity: 84%
Pressure (altimeter): 30.01 in. Hg (1016 hPa)
ob: KDRT 260953Z AUTO 11006KT 10SM BKN025 23/20 A3001 RMK AO2 SLP144 T02280200
cycle: 10

Station Type Date Time Source
KDRT TAF 2019/06/26 10:54 UTC NOAA

TAF
AMD KDRT 260952Z 2610/2706 10008KT P6SM BKN025
FM261300 11009KT P6SM BKN015
FM261600 13011KT P6SM SCT040

Example: see airport list